Decoded Metar for PASX (SOLDOTNA in AK, USA) (IATA:SXQ) | Meteo·Mobile Aviation Weather
aviador You're here:

PASX Decoded Metar

SOLDOTNA in AK, USA
Report Time2019-04-23 14:56:00
UTC Time2019-04-23 15:53:45
Flight Rules vfr VFR
Wind080° at 04 kt
W.Decomp.*RWY 07: 4.0 kt HW 0.6 kt LCW
Visibility9999 m
Phenomena:N/A
Clouds:Broken 055 Hf
Expected CloudBase > 1,200 ft AGL from Temp-Dew spread
Ceiling5,500 ft
Temp-4°C (ISA -19)
Dew Point-7°C (80% RH)
AAT-8.2°C
QNH1006 hPa
Density Alt-1,923 ft
Elevation105 ft
Report Wrong Elevation
Raw Report
PASX 231456Z AUTO 08004KT 10SM BKN055 M04/M07 A2972 RMK AO2 SLP074
T10441072 53014 FZRANO=

Extra information for PASX:More info

Metar Taf Metar & Taf Last 4 Metars F.Rules Stats Wind Profile Meteogram Temp Stats Airport Information Weather charts Add Link Nearby VenuesMetar ALERT Operation Metar Decoded Social comments

AIRNAV info for PASX